createdAt,value
2022-08-20T00:01:02.010Z,21.10
2022-08-20T00:03:33.023Z,21.00
2022-08-20T00:06:06.817Z,21.00
2022-08-20T00:08:35.125Z,21.00
2022-08-20T00:11:03.795Z,21.00
2022-08-20T00:13:33.975Z,21.00
2022-08-20T00:16:03.933Z,21.00
2022-08-20T00:18:36.943Z,21.00
2022-08-20T00:21:10.953Z,21.00
2022-08-20T00:23:42.050Z,21.00
2022-08-20T00:26:11.195Z,21.00
2022-08-20T00:28:46.653Z,21.10
2022-08-20T00:31:20.628Z,21.10
2022-08-20T00:33:50.860Z,21.00
2022-08-20T00:36:19.689Z,21.10
2022-08-20T00:38:48.907Z,21.10
2022-08-20T00:41:20.733Z,21.00
2022-08-20T00:43:52.039Z,21.00
2022-08-20T00:46:31.006Z,21.00
2022-08-20T00:49:00.044Z,21.00
2022-08-20T00:51:39.674Z,20.90
2022-08-20T00:54:14.424Z,20.90
2022-08-20T00:56:44.848Z,20.90
2022-08-20T00:59:17.644Z,20.90
2022-08-20T01:01:55.876Z,20.90
2022-08-20T01:04:26.276Z,20.90
2022-08-20T01:06:54.744Z,20.90
2022-08-20T01:09:49.436Z,20.90
2022-08-20T01:12:11.363Z,20.90
2022-08-20T01:14:44.793Z,20.90
2022-08-20T01:17:17.826Z,20.90
2022-08-20T01:19:51.345Z,20.90
2022-08-20T01:22:50.809Z,20.90
2022-08-20T01:25:26.818Z,21.00
2022-08-20T01:27:57.316Z,21.00
2022-08-20T01:30:30.564Z,21.00
2022-08-20T01:32:59.727Z,21.00
2022-08-20T01:35:29.869Z,21.00
2022-08-20T01:37:57.949Z,21.00
2022-08-20T01:40:44.709Z,21.00
2022-08-20T01:43:15.846Z,21.00
2022-08-20T01:45:45.417Z,21.00
2022-08-20T01:48:18.464Z,21.00
2022-08-20T01:50:55.413Z,21.00
2022-08-20T01:53:33.440Z,21.00
2022-08-20T01:56:01.833Z,21.00
2022-08-20T01:58:31.380Z,21.00
2022-08-20T02:00:59.795Z,21.00
2022-08-20T02:03:27.820Z,20.90
2022-08-20T02:05:55.836Z,20.90
2022-08-20T02:08:24.645Z,20.90
2022-08-20T02:10:52.633Z,20.90
2022-08-20T02:13:20.613Z,20.80
2022-08-20T02:15:49.969Z,20.80
2022-08-20T02:18:17.952Z,20.80
2022-08-20T02:20:46.653Z,20.70
2022-08-20T02:23:15.610Z,20.70
2022-08-20T02:25:48.294Z,20.60
2022-08-20T02:28:19.747Z,20.60
2022-08-20T02:30:52.050Z,20.60
2022-08-20T02:33:24.334Z,20.60
2022-08-20T02:35:56.508Z,20.50
2022-08-20T02:38:24.773Z,20.50
2022-08-20T02:40:52.798Z,20.40
2022-08-20T02:43:21.524Z,20.30
2022-08-20T02:45:51.626Z,20.30
2022-08-20T02:48:22.937Z,20.30
2022-08-20T02:50:53.397Z,20.20
2022-08-20T02:53:23.382Z,20.20
2022-08-20T02:55:51.737Z,20.20
2022-08-20T02:58:21.316Z,20.10
2022-08-20T03:00:51.605Z,20.10
2022-08-20T03:03:22.736Z,20.10
2022-08-20T03:05:53.570Z,20.10
2022-08-20T03:08:22.735Z,20.10
2022-08-20T03:10:52.788Z,20.10
2022-08-20T03:13:22.624Z,20.10
2022-08-20T03:15:58.892Z,20.10
2022-08-20T03:18:29.459Z,20.10
2022-08-20T03:20:57.540Z,20.10
2022-08-20T03:23:25.587Z,20.10
2022-08-20T03:25:53.562Z,20.10
2022-08-20T03:28:22.220Z,20.10
2022-08-20T03:30:53.151Z,20.10
2022-08-20T03:33:21.707Z,20.10
2022-08-20T03:35:50.099Z,20.10
2022-08-20T03:38:20.745Z,20.10
2022-08-20T03:41:01.019Z,20.10
2022-08-20T03:43:29.410Z,20.00
2022-08-20T03:45:58.871Z,20.00
2022-08-20T03:48:30.036Z,20.00
2022-08-20T03:51:00.702Z,20.00
2022-08-20T03:53:32.846Z,20.00
2022-08-20T03:56:04.364Z,20.00
2022-08-20T03:58:34.991Z,20.00
2022-08-20T04:01:07.311Z,20.00
2022-08-20T04:03:37.058Z,20.10
2022-08-20T04:06:05.611Z,20.10
2022-08-20T04:08:33.998Z,20.10
2022-08-20T04:11:01.965Z,20.10
2022-08-20T04:13:31.372Z,20.10
2022-08-20T04:16:03.581Z,20.10
2022-08-20T04:18:34.088Z,20.10
2022-08-20T04:21:06.037Z,20.10
2022-08-20T04:23:33.971Z,20.10
2022-08-20T04:26:01.911Z,20.10
2022-08-20T04:28:30.173Z,20.10
2022-08-20T04:31:00.331Z,20.20
2022-08-20T04:33:34.196Z,20.20
2022-08-20T04:36:08.630Z,20.20
2022-08-20T04:38:50.297Z,20.30
2022-08-20T04:41:22.592Z,20.30
2022-08-20T04:43:53.923Z,20.30
2022-08-20T04:46:23.547Z,20.40
2022-08-20T04:48:52.087Z,20.30
2022-08-20T04:51:23.014Z,20.30
2022-08-20T04:53:53.611Z,20.40
2022-08-20T04:56:24.276Z,20.40
2022-08-20T04:58:54.835Z,20.40
2022-08-20T05:01:24.151Z,20.40
2022-08-20T05:03:54.762Z,20.40
2022-08-20T05:06:28.589Z,20.40
2022-08-20T05:08:57.870Z,20.50
2022-08-20T05:11:36.099Z,20.50
2022-08-20T05:14:07.846Z,20.40
2022-08-20T05:16:38.810Z,20.40
2022-08-20T05:19:08.557Z,20.40
2022-08-20T05:21:38.565Z,20.50
2022-08-20T05:24:07.428Z,20.40
2022-08-20T05:26:35.785Z,20.50
2022-08-20T05:29:06.242Z,20.50
2022-08-20T05:31:35.554Z,20.50
2022-08-20T05:34:09.449Z,20.50
2022-08-20T05:36:40.641Z,20.60
2022-08-20T05:39:09.222Z,20.60
2022-08-20T05:41:37.769Z,20.70
2022-08-20T05:44:09.808Z,20.80
2022-08-20T05:46:40.378Z,20.90
2022-08-20T05:49:08.592Z,20.90
2022-08-20T05:51:37.100Z,20.90
2022-08-20T05:54:07.278Z,21.00
2022-08-20T05:56:35.959Z,21.00
2022-08-20T05:59:05.997Z,21.00
2022-08-20T06:01:35.820Z,21.10
2022-08-20T06:04:22.648Z,21.10
2022-08-20T06:06:51.817Z,21.10
2022-08-20T06:09:31.959Z,21.10
2022-08-20T06:12:02.428Z,21.10
2022-08-20T06:14:47.270Z,21.10
2022-08-20T06:17:17.147Z,21.10
2022-08-20T06:19:47.851Z,21.20
2022-08-20T06:22:21.771Z,21.30
2022-08-20T06:24:56.595Z,21.30
2022-08-20T06:27:24.768Z,21.40
2022-08-20T06:29:53.326Z,21.50
2022-08-20T06:32:31.839Z,21.50
2022-08-20T06:35:02.408Z,21.60
2022-08-20T06:37:33.606Z,21.70
2022-08-20T06:40:06.863Z,21.80
2022-08-20T06:42:35.056Z,21.90
2022-08-20T06:45:05.610Z,22.00
2022-08-20T06:47:34.695Z,22.20
2022-08-20T06:50:02.776Z,22.40
2022-08-20T06:52:52.730Z,22.60
2022-08-20T06:55:20.193Z,22.70
2022-08-20T06:57:48.796Z,22.90
2022-08-20T07:00:21.301Z,23.10
2022-08-20T07:02:49.291Z,23.20
2022-08-20T07:05:17.299Z,23.30
2022-08-20T07:07:46.477Z,23.50
2022-08-20T07:10:16.795Z,23.60
2022-08-20T07:12:46.911Z,23.70
2022-08-20T07:15:15.724Z,23.80
2022-08-20T07:17:43.791Z,23.80
2022-08-20T07:20:15.720Z,23.90
2022-08-20T07:22:44.820Z,24.00
2022-08-20T07:25:17.325Z,24.00
2022-08-20T07:27:47.683Z,24.00
2022-08-20T07:30:56.654Z,24.00
2022-08-20T07:33:24.129Z,24.00
2022-08-20T07:35:52.587Z,24.10
2022-08-20T07:38:24.522Z,24.20
2022-08-20T07:40:52.766Z,24.20
2022-08-20T07:43:24.021Z,24.30
2022-08-20T07:45:56.301Z,24.30
2022-08-20T07:48:27.910Z,24.40
2022-08-20T07:51:00.786Z,24.50
2022-08-20T07:53:32.387Z,24.60
2022-08-20T07:56:06.851Z,24.70
2022-08-20T07:58:38.217Z,24.70
2022-08-20T08:01:07.567Z,24.80
2022-08-20T08:03:48.980Z,24.80
2022-08-20T08:06:28.487Z,24.80
2022-08-20T08:08:57.856Z,24.90
2022-08-20T08:11:25.875Z,25.00
2022-08-20T08:13:55.386Z,25.00
2022-08-20T08:16:23.491Z,25.10
2022-08-20T08:18:56.666Z,25.20
2022-08-20T08:21:25.232Z,25.40
2022-08-20T08:23:53.483Z,25.50
2022-08-20T08:26:21.869Z,25.50
2022-08-20T08:28:49.936Z,25.50
2022-08-20T08:31:19.390Z,25.60
2022-08-20T08:33:47.776Z,25.60
2022-08-20T08:36:17.147Z,25.70
2022-08-20T08:38:46.459Z,25.70
2022-08-20T08:41:19.353Z,25.60
2022-08-20T08:43:50.603Z,25.50
2022-08-20T08:46:22.576Z,25.50
2022-08-20T08:48:53.563Z,25.50
2022-08-20T08:51:27.891Z,25.60
2022-08-20T08:53:57.802Z,25.60
2022-08-20T08:56:29.611Z,25.70
2022-08-20T08:59:00.286Z,25.80
2022-08-20T09:01:54.915Z,25.90
2022-08-20T09:04:25.067Z,25.90
2022-08-20T09:06:54.444Z,26.00
2022-08-20T09:09:28.618Z,26.00
2022-08-20T09:12:03.014Z,26.10
2022-08-20T09:14:30.991Z,26.10
2022-08-20T09:17:00.346Z,26.20
2022-08-20T09:19:28.425Z,26.30
2022-08-20T09:21:56.415Z,26.40
2022-08-20T09:24:24.797Z,26.50
2022-08-20T09:26:52.735Z,26.70
2022-08-20T09:29:20.712Z,26.90
2022-08-20T09:31:49.108Z,27.20
2022-08-20T09:34:18.400Z,27.40
2022-08-20T09:36:46.334Z,27.60
2022-08-20T09:39:14.301Z,27.60
2022-08-20T09:41:42.305Z,27.50
2022-08-20T09:44:10.246Z,27.60
2022-08-20T09:46:38.397Z,27.70
2022-08-20T09:49:21.007Z,27.80
2022-08-20T09:51:54.915Z,27.90
2022-08-20T09:54:23.841Z,27.90
2022-08-20T09:56:51.836Z,27.70
2022-08-20T09:59:19.788Z,27.30
2022-08-20T10:01:47.789Z,26.80
2022-08-20T10:04:15.800Z,26.40
2022-08-20T10:06:43.915Z,26.10
2022-08-20T10:09:13.393Z,25.70
2022-08-20T10:11:41.385Z,25.50
2022-08-20T10:14:09.960Z,25.20
2022-08-20T10:16:38.206Z,25.00
2022-08-20T10:19:06.643Z,24.90
2022-08-20T10:21:38.649Z,24.80
2022-08-20T10:24:07.106Z,24.80
2022-08-20T10:26:36.416Z,24.80
2022-08-20T10:29:04.407Z,24.90
2022-08-20T10:31:32.387Z,24.90
2022-08-20T10:34:00.313Z,25.00
2022-08-20T10:36:28.277Z,25.10
2022-08-20T10:38:56.262Z,25.20
2022-08-20T10:41:24.182Z,25.30
2022-08-20T10:43:53.760Z,25.40
2022-08-20T10:46:21.741Z,25.50
2022-08-20T10:48:49.697Z,25.60
2022-08-20T10:51:17.825Z,25.70
2022-08-20T10:53:45.736Z,25.80
2022-08-20T10:56:15.609Z,25.90
2022-08-20T10:58:44.508Z,26.10
2022-08-20T11:01:13.930Z,26.50
2022-08-20T11:03:59.751Z,27.00
2022-08-20T11:06:27.710Z,27.50
2022-08-20T11:08:56.985Z,27.70
2022-08-20T11:11:25.150Z,27.70
2022-08-20T11:13:53.088Z,27.80
2022-08-20T11:16:22.831Z,27.90
2022-08-20T11:18:50.866Z,28.10
2022-08-20T11:21:18.853Z,28.10
2022-08-20T11:23:46.797Z,28.00
2022-08-20T11:26:22.092Z,28.00
2022-08-20T11:28:50.198Z,28.00
2022-08-20T11:31:18.192Z,27.90
2022-08-20T11:33:47.501Z,27.80
2022-08-20T11:36:15.438Z,27.70
2022-08-20T11:38:43.663Z,27.60
2022-08-20T11:41:11.610Z,27.50
2022-08-20T11:43:39.585Z,27.40
2022-08-20T11:46:07.528Z,27.40
2022-08-20T11:48:35.447Z,27.40
2022-08-20T11:51:05.092Z,27.50
2022-08-20T11:53:33.076Z,27.70
2022-08-20T11:56:02.769Z,28.10
2022-08-20T11:58:32.680Z,28.50
2022-08-20T12:01:00.692Z,28.70
2022-08-20T12:03:28.649Z,28.90
2022-08-20T12:05:57.869Z,28.90
2022-08-20T12:08:28.215Z,28.80
2022-08-20T12:10:57.568Z,28.80
2022-08-20T12:13:47.145Z,28.70
2022-08-20T12:16:13.786Z,28.70
2022-08-20T12:18:41.966Z,28.70
2022-08-20T12:21:09.980Z,28.60
2022-08-20T12:23:39.303Z,28.50
2022-08-20T12:26:07.827Z,28.20
2022-08-20T12:28:35.738Z,28.00
2022-08-20T12:31:03.811Z,28.00
2022-08-20T12:33:31.959Z,28.00
2022-08-20T12:35:59.949Z,27.90
2022-08-20T12:38:27.951Z,27.90
2022-08-20T12:40:57.290Z,28.00
2022-08-20T12:43:25.477Z,28.20
2022-08-20T12:45:53.814Z,28.30
2022-08-20T12:48:21.858Z,28.40
2022-08-20T12:50:50.505Z,28.60
2022-08-20T12:53:18.695Z,28.70
2022-08-20T12:55:47.348Z,28.80
2022-08-20T12:58:16.738Z,28.90
2022-08-20T13:00:50.861Z,29.10
2022-08-20T13:03:19.862Z,29.00
2022-08-20T13:05:48.314Z,29.00
2022-08-20T13:08:17.862Z,29.00
2022-08-20T13:10:46.416Z,29.10
2022-08-20T13:13:17.653Z,29.20
2022-08-20T13:15:49.055Z,29.20
2022-08-20T13:18:17.128Z,29.30
2022-08-20T13:20:45.143Z,29.30
2022-08-20T13:23:13.076Z,29.30
2022-08-20T13:25:41.101Z,29.30
2022-08-20T13:28:09.109Z,29.20
2022-08-20T13:30:40.875Z,29.20
2022-08-20T13:33:08.910Z,29.20
2022-08-20T13:35:37.131Z,29.20
2022-08-20T13:38:05.213Z,29.30
2022-08-20T13:40:33.233Z,29.40
2022-08-20T13:43:04.765Z,29.50
2022-08-20T13:45:34.812Z,29.50
2022-08-20T13:48:04.984Z,29.50
2022-08-20T13:50:38.249Z,29.50
2022-08-20T13:53:07.186Z,29.40
2022-08-20T13:55:35.321Z,29.40
2022-08-20T13:58:07.546Z,29.30
2022-08-20T14:00:36.530Z,29.30
2022-08-20T14:03:07.404Z,29.30
2022-08-20T14:05:36.178Z,29.20
2022-08-20T14:08:10.429Z,29.30
2022-08-20T14:10:39.454Z,29.30
2022-08-20T14:13:15.163Z,29.40
2022-08-20T14:15:44.139Z,29.50
2022-08-20T14:18:14.331Z,29.50
2022-08-20T14:20:43.313Z,29.50
2022-08-20T14:23:14.570Z,29.50
2022-08-20T14:25:45.418Z,29.40
2022-08-20T14:28:14.741Z,29.40
2022-08-20T14:30:47.382Z,29.20
2022-08-20T14:33:23.594Z,29.10
2022-08-20T14:35:52.445Z,28.80
2022-08-20T14:38:20.546Z,28.60
2022-08-20T14:40:50.199Z,28.30
2022-08-20T14:43:18.245Z,28.20
2022-08-20T14:45:46.202Z,28.20
2022-08-20T14:48:14.902Z,28.00
2022-08-20T14:50:44.209Z,27.90
2022-08-20T14:53:12.152Z,27.70
2022-08-20T14:55:40.194Z,27.60
2022-08-20T14:58:09.782Z,27.40
2022-08-20T15:00:38.045Z,27.10
2022-08-20T15:03:06.002Z,26.90
2022-08-20T15:05:34.505Z,26.80
2022-08-20T15:08:10.623Z,26.70
2022-08-20T15:10:39.428Z,26.60
2022-08-20T15:13:07.628Z,26.60
2022-08-20T15:15:36.015Z,26.50
2022-08-20T15:18:04.604Z,26.40
2022-08-20T15:20:34.940Z,26.40
2022-08-20T15:23:03.121Z,26.30
2022-08-20T15:25:36.799Z,26.30
2022-08-20T15:28:06.882Z,26.30
2022-08-20T15:30:35.042Z,26.30
2022-08-20T15:33:03.373Z,26.30
2022-08-20T15:35:31.547Z,26.30
2022-08-20T15:38:00.243Z,26.40
2022-08-20T15:40:30.679Z,26.40
2022-08-20T15:43:02.621Z,26.40
2022-08-20T15:45:30.982Z,26.40
2022-08-20T15:48:04.100Z,26.40
2022-08-20T15:50:42.017Z,26.40
2022-08-20T15:53:13.610Z,26.40
2022-08-20T15:55:52.483Z,26.40
2022-08-20T15:58:28.192Z,26.40
2022-08-20T16:01:24.466Z,26.20
2022-08-20T16:04:14.155Z,26.10
2022-08-20T16:06:44.929Z,26.10
2022-08-20T16:09:26.950Z,26.10
2022-08-20T16:12:01.933Z,26.10
2022-08-20T16:14:35.625Z,26.10
2022-08-20T16:17:07.259Z,26.10
2022-08-20T16:19:42.922Z,26.00
2022-08-20T16:22:14.598Z,26.00
2022-08-20T16:24:42.544Z,26.00
2022-08-20T16:27:17.284Z,26.00
2022-08-20T16:29:54.353Z,25.90
2022-08-20T16:32:36.601Z,25.80
2022-08-20T16:35:21.256Z,25.70
2022-08-20T16:37:57.414Z,25.70
2022-08-20T16:40:28.554Z,25.70
2022-08-20T16:43:00.224Z,25.60
2022-08-20T16:45:32.326Z,25.60
2022-08-20T16:48:07.921Z,25.60
2022-08-20T16:50:40.282Z,25.50
2022-08-20T16:53:16.909Z,25.50
2022-08-20T16:55:45.060Z,25.50
2022-08-20T16:58:13.030Z,25.40
2022-08-20T17:00:45.284Z,25.40
2022-08-20T17:03:33.382Z,25.40
2022-08-20T17:06:17.286Z,25.30
2022-08-20T17:08:49.911Z,25.30
2022-08-20T17:11:25.823Z,25.20
2022-08-20T17:14:07.400Z,25.20
2022-08-20T17:16:40.337Z,25.10
2022-08-20T17:19:12.356Z,25.00
2022-08-20T17:21:41.176Z,25.00
2022-08-20T17:24:17.000Z,25.00
2022-08-20T17:26:47.440Z,25.00
2022-08-20T17:29:18.732Z,24.90
2022-08-20T17:31:51.331Z,24.90
2022-08-20T17:34:22.701Z,24.80
2022-08-20T17:36:56.884Z,24.80
2022-08-20T17:39:28.063Z,24.70
2022-08-20T17:42:06.059Z,24.70
2022-08-20T17:44:37.709Z,24.70
2022-08-20T17:47:12.797Z,24.60
2022-08-20T17:49:51.723Z,24.60
2022-08-20T17:52:35.283Z,24.60
2022-08-20T17:55:04.419Z,24.40
2022-08-20T17:57:37.983Z,24.40
2022-08-20T18:00:09.932Z,24.30
2022-08-20T18:02:39.248Z,24.20
2022-08-20T18:05:10.096Z,24.20
2022-08-20T18:07:45.500Z,24.10
2022-08-20T18:10:16.733Z,24.00
2022-08-20T18:12:56.128Z,24.00
2022-08-20T18:15:27.118Z,23.90
2022-08-20T18:18:15.675Z,23.70
2022-08-20T18:21:15.865Z,23.60
2022-08-20T18:23:48.451Z,23.50
2022-08-20T18:26:22.629Z,23.40
2022-08-20T18:28:54.005Z,23.30
2022-08-20T18:31:31.908Z,23.20
2022-08-20T18:34:11.914Z,23.10
2022-08-20T18:36:41.206Z,23.00
2022-08-20T18:39:24.065Z,22.90
2022-08-20T18:41:58.767Z,22.90
2022-08-20T18:44:37.213Z,22.80
2022-08-20T18:47:06.907Z,22.70
2022-08-20T18:49:38.011Z,22.60
2022-08-20T18:52:14.364Z,22.50
2022-08-20T18:54:49.860Z,22.30
2022-08-20T18:57:22.223Z,22.20
2022-08-20T18:59:57.209Z,22.00
2022-08-20T19:02:27.697Z,21.90
2022-08-20T19:05:02.519Z,21.80
2022-08-20T19:07:48.313Z,21.70
2022-08-20T19:10:38.724Z,21.60
2022-08-20T19:13:46.399Z,21.50
2022-08-20T19:16:19.601Z,21.40
2022-08-20T19:18:51.454Z,21.20
2022-08-20T19:21:35.361Z,21.20
2022-08-20T19:24:09.182Z,21.10
2022-08-20T19:26:44.923Z,21.00
2022-08-20T19:29:17.141Z,20.90
2022-08-20T19:31:45.595Z,20.80
2022-08-20T19:34:21.655Z,20.70
2022-08-20T19:36:58.069Z,20.60
2022-08-20T19:39:28.034Z,20.60
2022-08-20T19:42:01.154Z,20.50
2022-08-20T19:44:34.963Z,20.40
2022-08-20T19:47:07.263Z,20.40
2022-08-20T19:49:46.926Z,20.40
2022-08-20T19:52:29.267Z,20.40
2022-08-20T19:55:03.359Z,20.30
2022-08-20T19:57:32.414Z,20.30
2022-08-20T20:00:03.948Z,20.40
2022-08-20T20:02:36.458Z,20.30
2022-08-20T20:05:07.114Z,20.30
2022-08-20T20:07:42.546Z,20.30
2022-08-20T20:10:20.982Z,20.20
2022-08-20T20:12:49.408Z,20.00
2022-08-20T20:15:17.832Z,19.90
2022-08-20T20:17:46.169Z,19.80
2022-08-20T20:20:25.959Z,19.90
2022-08-20T20:23:03.017Z,19.80
2022-08-20T20:25:42.104Z,19.70
2022-08-20T20:28:22.799Z,19.70
2022-08-20T20:30:51.269Z,19.60
2022-08-20T20:33:24.671Z,19.50
2022-08-20T20:36:03.098Z,19.40
2022-08-20T20:38:32.517Z,19.40
2022-08-20T20:41:02.584Z,19.30
2022-08-20T20:43:33.303Z,19.20
2022-08-20T20:46:06.340Z,19.10
2022-08-20T20:48:45.931Z,19.00
2022-08-20T20:51:19.255Z,19.00
2022-08-20T20:53:54.587Z,18.90
2022-08-20T20:56:30.166Z,18.70
2022-08-20T20:59:01.301Z,18.70
2022-08-20T21:01:48.452Z,18.70
2022-08-20T21:04:19.675Z,18.70
2022-08-20T21:06:48.172Z,18.60
2022-08-20T21:09:18.607Z,18.60
2022-08-20T21:11:46.877Z,18.60
2022-08-20T21:14:15.004Z,18.60
2022-08-20T21:16:43.436Z,18.60
2022-08-20T21:19:12.428Z,18.50
2022-08-20T21:21:41.560Z,18.50
2022-08-20T21:24:10.104Z,18.40
2022-08-20T21:26:40.429Z,18.30
2022-08-20T21:29:10.348Z,18.20
2022-08-20T21:31:43.737Z,18.10
2022-08-20T21:34:12.867Z,18.10
2022-08-20T21:36:40.954Z,18.10
2022-08-20T21:39:09.376Z,18.00
2022-08-20T21:41:39.496Z,18.00
2022-08-20T21:44:13.029Z,18.00
2022-08-20T21:46:41.073Z,17.90
2022-08-20T21:49:08.979Z,17.90
2022-08-20T21:51:37.020Z,17.80
2022-08-20T21:54:05.251Z,17.80
2022-08-20T21:56:34.056Z,17.80
2022-08-20T21:59:04.292Z,17.80
2022-08-20T22:01:33.472Z,17.70
2022-08-20T22:04:01.674Z,17.60
2022-08-20T22:06:31.271Z,17.50
2022-08-20T22:08:59.420Z,17.40
2022-08-20T22:11:27.510Z,17.40
2022-08-20T22:13:55.646Z,17.30
2022-08-20T22:16:25.101Z,17.30
2022-08-20T22:18:53.595Z,17.20
2022-08-20T22:21:25.636Z,17.20
2022-08-20T22:23:54.823Z,17.20
2022-08-20T22:26:22.996Z,17.20
2022-08-20T22:28:55.798Z,17.10
2022-08-20T22:31:32.414Z,17.00
2022-08-20T22:34:00.322Z,16.90
2022-08-20T22:36:29.094Z,16.90
2022-08-20T22:38:57.209Z,16.80
2022-08-20T22:41:25.349Z,16.80
2022-08-20T22:43:56.970Z,16.80
2022-08-20T22:46:29.210Z,16.80
2022-08-20T22:48:57.919Z,16.70
2022-08-20T22:51:30.782Z,16.70
2022-08-20T22:53:59.310Z,16.70
2022-08-20T22:56:29.884Z,16.70
2022-08-20T22:58:59.380Z,16.70
2022-08-20T23:01:29.841Z,16.70
2022-08-20T23:04:02.439Z,16.60
2022-08-20T23:06:31.837Z,16.60
2022-08-20T23:08:59.990Z,16.60
2022-08-20T23:11:27.993Z,16.50
2022-08-20T23:13:56.946Z,16.40
2022-08-20T23:16:26.097Z,16.40
2022-08-20T23:18:55.525Z,16.30
2022-08-20T23:21:23.519Z,16.20
2022-08-20T23:23:51.506Z,16.10
2022-08-20T23:26:22.168Z,16.10
2022-08-20T23:28:50.497Z,16.10
2022-08-20T23:31:19.130Z,16.00
2022-08-20T23:33:47.040Z,16.00
2022-08-20T23:36:20.080Z,16.00
2022-08-20T23:38:48.449Z,15.90
2022-08-20T23:41:16.717Z,15.90
2022-08-20T23:43:45.012Z,15.80
2022-08-20T23:46:13.678Z,15.70
2022-08-20T23:48:41.690Z,15.70
2022-08-20T23:51:10.085Z,15.70
2022-08-20T23:53:39.658Z,15.70
2022-08-20T23:56:07.963Z,15.60
2022-08-20T23:58:37.044Z,15.60
